MSC Sinfonia — H8XH — position and weather

sailwx.info

Track history (hours):
 
Tides and Currents Weather Stations Pressure Air Temp Water Temp Dewpoint Dewpoint Depression Visibility Wind Speed Wind Dir Waves Ship Positions

MSC Sinfonia

Last reported at 2014-Nov-18 21:33 UTC. Time now 2014-Nov-21 16:45 UTC.
Position N 36°00' W 005°22'.

Length 251 m; draft 6.8 m.

Type: Passenger vessel. MMSI: 356715971.

Date/timePositionNaut miles runAvg speedWind from/ knotsBaromVisibWave heightAir tempDewpointWater temp
2014-Nov-18 21:33N 36°00' W 005°22'23611.2
2014-Nov-18 00:33N 37°25' W 000°47'2120.6
2014-Nov-17 23:33N 37°38' W 000°28'15919.9
2014-Nov-17 15:32N 39°35' E 001°51'1919.1
2014-Nov-17 14:33N 39°47' E 002°09'1919.0
2014-Nov-17 13:33N 39°60' E 002°28'1918.6
2014-Nov-17 12:33N 40°12' E 002°46'1918.8
2014-Nov-17 11:33N 40°25' E 003°05'5918.8
2014-Nov-17 08:24N 41°05' E 004°02'2318.8
2014-Nov-17 07:12N 41°20' E 004°24'10719.0
2014-Nov-17 01:33N 42°32' E 006°11'2419.5
2014-Nov-17 00:20N 42°48' E 006°35'1620.4
2014-Nov-16 23:33N 42°58' E 006°51'2120.2
2014-Nov-16 22:31N 43°12' E 007°13'8119.7
2014-Nov-16 18:26N 44°06' E 008°36'1719.9
2014-Nov-16 17:33N 44°18' E 008°53'7 5.7
2014-Nov-16 16:23N 44°25' E 008°55'0 0.0
2014-Nov-16 14:17N 44°25' E 008°55'0 0.0
2014-Nov-16 13:29N 44°25' E 008°55'0 0.0
2014-Nov-16 12:17N 44°25' E 008°55'0 0.0
2014-Nov-16 11:17N 44°25' E 008°55'0 0.0
2014-Nov-16 10:11N 44°25' E 008°55'0 0.0
2014-Nov-16 09:29N 44°25' E 008°55'0 0.0
2014-Nov-16 08:23N 44°25' E 008°55'1 0.8
2014-Nov-16 07:33N 44°24' E 008°55'9 9.1
2014-Nov-16 06:33N 44°15' E 008°52'1816.9
2014-Nov-16 05:30N 44°03' E 008°34'5418.4
2014-Nov-16 02:34N 43°29' E 007°36'2419.3
2014-Nov-16 01:18N 43°14' E 007°09'1619.1
2014-Nov-16 00:27N 43°05' E 006°51'1718.6
2014-Nov-15 23:33N 42°56' E 006°32'1918.6
2014-Nov-15 22:34N 42°46' E 006°10'1919.0
2014-Nov-15 21:33N 42°37' E 005°47'4019.8
2014-Nov-15 19:33N 42°19' E 004°59'2020.1
2014-Nov-15 18:32N 42°11' E 004°34'2019.2
2014-Nov-15 17:29N 42°01' E 004°10'1919.0
2014-Nov-15 16:28N 41°52' E 003°47'1719.2
2014-Nov-15 15:34N 41°45' E 003°26'2719.7
2014-Nov-15 14:12N 41°33' E 002°54'1419.3
2014-Nov-15 13:27N 41°26' E 002°36'27 2.7
2014-Nov-15 03:29N 41°10' E 002°07'1213.1
2014-Nov-15 02:33N 40°60' E 002°00'1312.8
2014-Nov-15 01:33N 40°48' E 001°52'1211.8
2014-Nov-15 00:33N 40°38' E 001°45'1313.4
2014-Nov-14 23:33N 40°26' E 001°37'1413.9
2014-Nov-14 22:33N 40°13' E 001°28'1413.8
2014-Nov-14 21:33N 40°02' E 001°19'1513.6
2014-Nov-14 20:25N 39°48' E 001°11'14314.4
2014-Nov-14 10:28N 37°44' W 000°22'1314.3
2014-Nov-14 09:33N 37°33' W 000°31'1514.5
2014-Nov-14 08:33N 37°23' W 000°45'23215.5
2014-Nov-13 17:33N 35°60' W 005°15'  
2014-Nov-09 17:16N 32°18' W 016°49'1317.9
2014-Nov-09 16:33N 32°31' W 016°52'8 8.4
2014-Nov-09 15:34N 32°39' W 016°55'0 0.0
2014-Nov-09 14:34N 32°39' W 016°55'0 0.0
2014-Nov-09 13:34N 32°39' W 016°55'0 0.0
2014-Nov-09 12:34N 32°39' W 016°55'0 0.0
2014-Nov-09 11:33N 32°39' W 016°55'0 0.0
2014-Nov-09 10:33N 32°39' W 016°55'0 0.0
2014-Nov-09 09:34N 32°39' W 016°55'0 0.0
2014-Nov-09 08:32N 32°39' W 016°55'0 0.0
2014-Nov-09 07:33N 32°39' W 016°55'1 0.9
2014-Nov-09 06:34N 32°38' W 016°54'  
Track history (hours):
 
Tides and Currents Weather Stations Pressure Air Temp Water Temp Dewpoint Dewpoint Depression Visibility Wind Speed Wind Dir Waves Ship Positions

MSC Sinfonia

Last reported at 2014-Nov-18 21:33 UTC. Time now 2014-Nov-21 16:45 UTC.
Position N 36°00' W 005°22'.

Length 251 m; draft 6.8 m.

Type: Passenger vessel. MMSI: 356715971.

Date/timePositionNaut miles runAvg speedWind from/ knotsBaromVisibWave heightAir tempDewpointWater temp
2014-Nov-18 21:33N 36°00' W 005°22'23611.2
2014-Nov-18 00:33N 37°25' W 000°47'2120.6
2014-Nov-17 23:33N 37°38' W 000°28'15919.9
2014-Nov-17 15:32N 39°35' E 001°51'1919.1
2014-Nov-17 14:33N 39°47' E 002°09'1919.0
2014-Nov-17 13:33N 39°60' E 002°28'1918.6
2014-Nov-17 12:33N 40°12' E 002°46'1918.8
2014-Nov-17 11:33N 40°25' E 003°05'5918.8
2014-Nov-17 08:24N 41°05' E 004°02'2318.8
2014-Nov-17 07:12N 41°20' E 004°24'10719.0
2014-Nov-17 01:33N 42°32' E 006°11'2419.5
2014-Nov-17 00:20N 42°48' E 006°35'1620.4
2014-Nov-16 23:33N 42°58' E 006°51'2120.2
2014-Nov-16 22:31N 43°12' E 007°13'8119.7
2014-Nov-16 18:26N 44°06' E 008°36'1719.9
2014-Nov-16 17:33N 44°18' E 008°53'7 5.7
2014-Nov-16 16:23N 44°25' E 008°55'0 0.0
2014-Nov-16 14:17N 44°25' E 008°55'0 0.0
2014-Nov-16 13:29N 44°25' E 008°55'0 0.0
2014-Nov-16 12:17N 44°25' E 008°55'0 0.0
2014-Nov-16 11:17N 44°25' E 008°55'0 0.0
2014-Nov-16 10:11N 44°25' E 008°55'0 0.0
2014-Nov-16 09:29N 44°25' E 008°55'0 0.0
2014-Nov-16 08:23N 44°25' E 008°55'1 0.8
2014-Nov-16 07:33N 44°24' E 008°55'9 9.1
2014-Nov-16 06:33N 44°15' E 008°52'1816.9
2014-Nov-16 05:30N 44°03' E 008°34'5418.4
2014-Nov-16 02:34N 43°29' E 007°36'2419.3
2014-Nov-16 01:18N 43°14' E 007°09'1619.1
2014-Nov-16 00:27N 43°05' E 006°51'1718.6
2014-Nov-15 23:33N 42°56' E 006°32'1918.6
2014-Nov-15 22:34N 42°46' E 006°10'1919.0
2014-Nov-15 21:33N 42°37' E 005°47'4019.8
2014-Nov-15 19:33N 42°19' E 004°59'2020.1
2014-Nov-15 18:32N 42°11' E 004°34'2019.2
2014-Nov-15 17:29N 42°01' E 004°10'1919.0
2014-Nov-15 16:28N 41°52' E 003°47'1719.2
2014-Nov-15 15:34N 41°45' E 003°26'2719.7
2014-Nov-15 14:12N 41°33' E 002°54'1419.3
2014-Nov-15 13:27N 41°26' E 002°36'27 2.7
2014-Nov-15 03:29N 41°10' E 002°07'1213.1
2014-Nov-15 02:33N 40°60' E 002°00'1312.8
2014-Nov-15 01:33N 40°48' E 001°52'1211.8
2014-Nov-15 00:33N 40°38' E 001°45'1313.4
2014-Nov-14 23:33N 40°26' E 001°37'1413.9
2014-Nov-14 22:33N 40°13' E 001°28'1413.8
2014-Nov-14 21:33N 40°02' E 001°19'1513.6
2014-Nov-14 20:25N 39°48' E 001°11'14314.4
2014-Nov-14 10:28N 37°44' W 000°22'1314.3
2014-Nov-14 09:33N 37°33' W 000°31'1514.5
2014-Nov-14 08:33N 37°23' W 000°45'23215.5
2014-Nov-13 17:33N 35°60' W 005°15'  
2014-Nov-09 17:16N 32°18' W 016°49'1317.9
2014-Nov-09 16:33N 32°31' W 016°52'8 8.4
2014-Nov-09 15:34N 32°39' W 016°55'0 0.0
2014-Nov-09 14:34N 32°39' W 016°55'0 0.0
2014-Nov-09 13:34N 32°39' W 016°55'0 0.0
2014-Nov-09 12:34N 32°39' W 016°55'0 0.0
2014-Nov-09 11:33N 32°39' W 016°55'0 0.0
2014-Nov-09 10:33N 32°39' W 016°55'0 0.0
2014-Nov-09 09:34N 32°39' W 016°55'0 0.0
2014-Nov-09 08:32N 32°39' W 016°55'0 0.0
2014-Nov-09 07:33N 32°39' W 016°55'1 0.9
2014-Nov-09 06:34N 32°38' W 016°54'  

Dump ship's entire track history